Tweedale, United Kingdom
Current Conditions -  °F | °C
As of 3:20 PM on Thursday 23 Oct 2014 (Local Time) from EGPH Reporting Station
Overcast Overcast  
Wind Chill: 57°   Ceiling: 2500
Heat Index: 57°   Visibility: 6mi
Dew Point: 54°   Wind: 14mph
Humidity: 88%   Direction: 220°SW
Pressure: 29.71"   Gusts: NA
Location:  55.75°N, 3.25°W
Report Text: EGPH 231420Z 22012KT 9999 BKN025 OVC036 14/12 Q1006
Loading
Personal Weather Stations






























Interactive Weather Map
Tropical Storm Tracking
New forecast layout! Learn more

10-Day Weather Forecast

Advertisements
Track Severe Weather on mobile